createdAt,value
2023-03-04T00:00:59.428Z,28.73
2023-03-04T00:03:27.751Z,27.87
2023-03-04T00:05:55.980Z,27.50
2023-03-04T00:08:24.225Z,33.03
2023-03-04T00:10:54.044Z,31.67
2023-03-04T00:13:22.359Z,41.00
2023-03-04T00:15:50.653Z,29.57
2023-03-04T00:18:18.917Z,28.80
2023-03-04T00:20:47.141Z,27.97
2023-03-04T00:23:15.352Z,28.10
2023-03-04T00:25:43.780Z,27.17
2023-03-04T00:28:13.364Z,31.70
2023-03-04T00:30:41.816Z,32.90
2023-03-04T00:33:10.098Z,30.37
2023-03-04T00:35:38.351Z,31.77
2023-03-04T00:38:06.589Z,33.17
2023-03-04T00:40:34.945Z,27.40
2023-03-04T00:43:04.043Z,28.35
2023-03-04T00:45:33.667Z,22.80
2023-03-04T00:48:01.954Z,28.30
2023-03-04T00:50:30.306Z,29.83
2023-03-04T00:52:58.668Z,26.13
2023-03-04T00:55:26.976Z,33.27
2023-03-04T00:57:55.354Z,28.40
2023-03-04T01:00:24.168Z,30.27
2023-03-04T01:02:53.798Z,30.17
2023-03-04T01:05:22.021Z,30.80
2023-03-04T01:07:50.345Z,25.50
2023-03-04T01:10:19.378Z,36.70
2023-03-04T01:12:47.608Z,27.40
2023-03-04T01:15:16.242Z,28.17
2023-03-04T01:17:44.526Z,30.70
2023-03-04T01:20:14.702Z,36.17
2023-03-04T01:22:43.083Z,27.08
2023-03-04T01:25:11.594Z,29.33
2023-03-04T01:27:39.836Z,26.57
2023-03-04T01:30:08.972Z,31.30
2023-03-04T01:32:37.187Z,26.43
2023-03-04T01:35:05.887Z,34.13
2023-03-04T01:37:35.644Z,27.83
2023-03-04T01:40:05.521Z,28.75
2023-03-04T01:42:35.667Z,29.05
2023-03-04T01:45:04.952Z,25.73
2023-03-04T01:47:33.936Z,27.88
2023-03-04T01:50:03.695Z,37.15
2023-03-04T01:52:32.023Z,32.00
2023-03-04T01:55:02.080Z,25.30
2023-03-04T01:57:34.728Z,27.40
2023-03-04T02:00:25.712Z,34.22
2023-03-04T02:02:55.727Z,33.70
2023-03-04T02:05:24.728Z,34.13
2023-03-04T02:07:54.115Z,32.80
2023-03-04T02:10:24.004Z,29.92
2023-03-04T02:12:52.813Z,31.40
2023-03-04T02:15:21.613Z,34.03
2023-03-04T02:17:50.145Z,27.10
2023-03-04T02:20:30.162Z,36.80
2023-03-04T02:23:03.404Z,29.83
2023-03-04T02:25:38.361Z,31.08
2023-03-04T02:28:08.338Z,27.27
2023-03-04T02:30:36.687Z,25.67
2023-03-04T02:33:04.967Z,31.37
2023-03-04T02:35:33.514Z,29.43
2023-03-04T02:38:01.801Z,22.50
2023-03-04T02:40:32.209Z,31.33
2023-03-04T02:43:01.612Z,27.07
2023-03-04T02:45:44.004Z,31.85
2023-03-04T02:48:13.402Z,27.60
2023-03-04T02:50:44.439Z,36.70
2023-03-04T02:53:12.806Z,30.92
2023-03-04T02:55:42.447Z,33.80
2023-03-04T02:58:12.798Z,29.97
2023-03-04T03:00:42.588Z,24.65
2023-03-04T03:03:11.264Z,28.42
2023-03-04T03:05:39.708Z,27.40
2023-03-04T03:08:09.510Z,29.83
2023-03-04T03:10:37.832Z,28.70
2023-03-04T03:13:07.862Z,31.17
2023-03-04T03:15:36.570Z,30.77
2023-03-04T03:18:06.267Z,26.47
2023-03-04T03:20:34.478Z,26.27
2023-03-04T03:23:03.333Z,24.85
2023-03-04T03:25:31.831Z,26.83
2023-03-04T03:28:00.382Z,27.87
2023-03-04T03:30:29.553Z,53.42
2023-03-04T03:32:58.169Z,107.95
2023-03-04T03:35:28.358Z,34.15
2023-03-04T03:37:56.614Z,28.92
2023-03-04T03:40:24.964Z,30.85
2023-03-04T03:42:53.196Z,26.35
2023-03-04T03:45:21.472Z,27.67
2023-03-04T03:47:49.759Z,29.52
2023-03-04T03:50:18.269Z,28.08
2023-03-04T03:52:48.138Z,28.57
2023-03-04T03:55:16.520Z,33.45
2023-03-04T03:57:44.867Z,28.02
2023-03-04T04:00:14.426Z,29.00
2023-03-04T04:02:42.747Z,28.50
2023-03-04T04:05:12.107Z,29.13
2023-03-04T04:07:41.802Z,26.65
2023-03-04T04:10:12.576Z,28.08
2023-03-04T04:12:40.837Z,26.85
2023-03-04T04:15:11.690Z,29.85
2023-03-04T04:17:40.578Z,36.47
2023-03-04T04:20:11.998Z,26.73
2023-03-04T04:22:40.275Z,28.27
2023-03-04T04:25:10.726Z,26.98
2023-03-04T04:27:40.529Z,30.27
2023-03-04T04:30:09.704Z,22.73
2023-03-04T04:32:37.884Z,32.40
2023-03-04T04:35:06.959Z,31.02
2023-03-04T04:37:35.367Z,36.85
2023-03-04T04:40:04.218Z,39.00
2023-03-04T04:42:32.566Z,32.67
2023-03-04T04:45:02.339Z,35.85
2023-03-04T04:47:31.732Z,38.20
2023-03-04T04:49:59.974Z,39.35
2023-03-04T04:52:28.173Z,35.65
2023-03-04T04:54:56.428Z,36.13
2023-03-04T04:57:24.705Z,36.28
2023-03-04T04:59:53.196Z,31.42
2023-03-04T05:02:22.843Z,30.27
2023-03-04T05:04:51.095Z,30.03
2023-03-04T05:07:19.563Z,34.20
2023-03-04T05:09:47.827Z,32.97
2023-03-04T05:12:16.058Z,37.85
2023-03-04T05:14:44.457Z,42.38
2023-03-04T05:17:12.751Z,28.27
2023-03-04T05:19:42.383Z,34.38
2023-03-04T05:22:10.619Z,39.95
2023-03-04T05:24:38.863Z,36.70
2023-03-04T05:27:07.130Z,33.10
2023-03-04T05:29:35.698Z,31.98
2023-03-04T05:32:03.980Z,30.92
2023-03-04T05:34:33.276Z,33.92
2023-03-04T05:37:02.894Z,32.78
2023-03-04T05:39:31.157Z,37.17
2023-03-04T05:41:59.385Z,34.10
2023-03-04T05:44:27.632Z,32.05
2023-03-04T05:46:55.864Z,30.77
2023-03-04T05:49:24.331Z,33.25
2023-03-04T05:51:53.437Z,30.02
2023-03-04T05:54:23.039Z,45.55
2023-03-04T05:56:51.296Z,48.28
2023-03-04T05:59:21.660Z,38.10
2023-03-04T06:01:49.987Z,50.22
2023-03-04T06:04:18.230Z,57.33
2023-03-04T06:06:47.436Z,51.83
2023-03-04T06:09:15.991Z,58.33
2023-03-04T06:11:45.561Z,36.35
2023-03-04T06:14:13.887Z,36.17
2023-03-04T06:16:42.105Z,47.63
2023-03-04T06:19:10.355Z,34.45
2023-03-04T06:21:38.625Z,25.85
2023-03-04T06:24:07.461Z,27.02
2023-03-04T06:26:35.806Z,30.10
2023-03-04T06:29:05.823Z,29.98
2023-03-04T06:31:34.347Z,29.55
2023-03-04T06:34:02.602Z,32.33
2023-03-04T06:36:30.849Z,52.70
2023-03-04T06:38:59.170Z,51.05
2023-03-04T06:41:27.508Z,42.85
2023-03-04T06:43:55.926Z,33.20
2023-03-04T06:46:25.627Z,32.27
2023-03-04T06:48:53.972Z,29.55
2023-03-04T06:51:22.271Z,34.00
2023-03-04T06:53:50.491Z,30.88
2023-03-04T06:56:18.987Z,36.03
2023-03-04T06:58:47.840Z,36.25
2023-03-04T07:01:17.678Z,31.60
2023-03-04T07:03:48.080Z,31.13
2023-03-04T07:06:17.728Z,30.10
2023-03-04T07:08:46.585Z,33.17
2023-03-04T07:11:15.848Z,39.10
2023-03-04T07:13:44.224Z,38.73
2023-03-04T07:16:14.042Z,44.13
2023-03-04T07:18:42.610Z,54.20
2023-03-04T07:21:12.454Z,53.10
2023-03-04T07:23:40.804Z,49.00
2023-03-04T07:26:09.375Z,50.80
2023-03-04T07:28:38.427Z,40.45
2023-03-04T07:31:11.851Z,46.07
2023-03-04T07:33:40.094Z,41.97
2023-03-04T07:36:08.547Z,50.10
2023-03-04T07:38:38.261Z,39.93
2023-03-04T07:41:06.790Z,44.40
2023-03-04T07:43:35.055Z,40.37
2023-03-04T07:46:03.343Z,41.90
2023-03-04T07:48:31.603Z,41.40
2023-03-04T07:51:08.393Z,45.63
2023-03-04T07:53:39.073Z,40.53
2023-03-04T07:56:09.556Z,39.53
2023-03-04T07:58:37.849Z,34.93
2023-03-04T08:01:10.967Z,32.07
2023-03-04T08:03:39.253Z,25.03
2023-03-04T08:06:08.664Z,26.60
2023-03-04T08:08:38.625Z,29.77
2023-03-04T08:11:08.174Z,25.33
2023-03-04T08:13:36.934Z,26.03
2023-03-04T08:16:05.839Z,27.20
2023-03-04T08:18:34.361Z,28.47
2023-03-04T08:21:02.912Z,24.67
2023-03-04T08:23:31.218Z,27.67
2023-03-04T08:26:00.833Z,23.30
2023-03-04T08:28:29.093Z,29.03
2023-03-04T08:30:57.383Z,19.67
2023-03-04T08:33:25.690Z,20.17
2023-03-04T08:35:54.464Z,23.70
2023-03-04T08:38:22.669Z,20.97
2023-03-04T08:40:54.409Z,20.63
2023-03-04T08:43:24.884Z,19.07
2023-03-04T08:45:54.179Z,21.60
2023-03-04T08:48:22.497Z,19.00
2023-03-04T08:50:51.282Z,26.40
2023-03-04T08:53:20.558Z,21.70
2023-03-04T08:55:49.340Z,20.23
2023-03-04T08:58:17.557Z,18.50
2023-03-04T09:00:49.458Z,26.23
2023-03-04T09:03:19.552Z,19.40
2023-03-04T09:05:49.223Z,17.17
2023-03-04T09:08:18.088Z,15.10
2023-03-04T09:10:47.290Z,23.73
2023-03-04T09:13:16.293Z,18.63
2023-03-04T09:15:47.516Z,20.30
2023-03-04T09:18:16.348Z,17.40
2023-03-04T09:20:44.639Z,18.73
2023-03-04T09:23:13.029Z,13.43
2023-03-04T09:25:41.978Z,25.03
2023-03-04T09:28:10.236Z,16.80
2023-03-04T09:30:38.537Z,16.03
2023-03-04T09:33:08.362Z,16.90
2023-03-04T09:35:36.831Z,15.00
2023-03-04T09:38:05.320Z,13.27
2023-03-04T09:40:35.942Z,13.00
2023-03-04T09:43:05.530Z,13.87
2023-03-04T09:45:38.183Z,13.50
2023-03-04T09:48:08.709Z,13.53
2023-03-04T09:50:40.954Z,17.10
2023-03-04T09:53:18.398Z,15.77
2023-03-04T09:55:51.588Z,13.00
2023-03-04T09:58:30.562Z,12.77
2023-03-04T10:01:05.194Z,15.30
2023-03-04T10:03:44.135Z,13.23
2023-03-04T10:06:14.883Z,11.80
2023-03-04T10:08:47.816Z,9.47
2023-03-04T10:11:18.429Z,11.10
2023-03-04T10:13:59.697Z,12.30
2023-03-04T10:16:32.140Z,11.03
2023-03-04T10:19:08.005Z,11.20
2023-03-04T10:21:39.001Z,9.47
2023-03-04T10:24:13.659Z,10.70
2023-03-04T10:26:44.030Z,14.20
2023-03-04T10:29:15.659Z,9.60
2023-03-04T10:31:44.385Z,9.67
2023-03-04T10:34:15.221Z,9.30
2023-03-04T10:36:53.350Z,9.53
2023-03-04T10:39:24.139Z,9.87
2023-03-04T10:41:57.524Z,8.80
2023-03-04T10:44:26.453Z,9.50
2023-03-04T10:46:57.046Z,13.00
2023-03-04T10:49:28.963Z,8.53
2023-03-04T10:52:03.740Z,9.90
2023-03-04T10:54:35.034Z,14.50
2023-03-04T10:57:05.218Z,8.80
2023-03-04T10:59:42.196Z,11.83
2023-03-04T11:02:23.428Z,7.77
2023-03-04T11:04:55.473Z,9.63
2023-03-04T11:07:26.138Z,10.57
2023-03-04T11:09:57.254Z,9.40
2023-03-04T11:12:34.713Z,10.73
2023-03-04T11:15:03.521Z,8.10
2023-03-04T11:17:43.859Z,12.20
2023-03-04T11:20:16.143Z,7.37
2023-03-04T11:22:47.076Z,7.63
2023-03-04T11:25:25.216Z,9.43
2023-03-04T11:27:55.338Z,8.50
2023-03-04T11:30:30.967Z,7.67
2023-03-04T11:33:06.610Z,8.93
2023-03-04T11:35:43.699Z,7.37
2023-03-04T11:38:18.700Z,7.23
2023-03-04T11:40:49.769Z,9.20
2023-03-04T11:43:19.934Z,11.13
2023-03-04T11:46:17.300Z,8.50
2023-03-04T11:48:52.355Z,8.40
2023-03-04T11:51:25.862Z,8.43
2023-03-04T11:54:02.292Z,8.50
2023-03-04T11:56:34.247Z,10.20
2023-03-04T11:59:31.987Z,11.30
2023-03-04T12:02:16.710Z,13.93
2023-03-04T12:05:10.314Z,9.63
2023-03-04T12:07:48.144Z,11.57
2023-03-04T12:10:26.101Z,11.00
2023-03-04T12:13:36.406Z,8.57
2023-03-04T12:16:17.186Z,8.23
2023-03-04T12:18:56.074Z,9.90
2023-03-04T12:21:47.509Z,9.90
2023-03-04T12:24:31.476Z,13.97
2023-03-04T12:27:04.690Z,10.23
2023-03-04T12:29:39.331Z,10.47
2023-03-04T12:32:13.472Z,10.97
2023-03-04T12:35:04.985Z,11.43
2023-03-04T12:37:50.941Z,9.87
2023-03-04T12:40:29.775Z,6.70
2023-03-04T12:43:35.636Z,8.07
2023-03-04T12:46:12.980Z,14.13
2023-03-04T12:48:43.721Z,11.63
2023-03-04T12:51:24.564Z,11.77
2023-03-04T12:53:59.777Z,12.43
2023-03-04T12:56:34.491Z,16.43
2023-03-04T12:59:03.243Z,9.07
2023-03-04T13:01:34.780Z,10.90
2023-03-04T13:04:06.497Z,29.63
2023-03-04T13:06:43.441Z,10.17
2023-03-04T13:09:18.836Z,9.87
2023-03-04T13:11:54.845Z,11.57
2023-03-04T13:14:32.049Z,7.40
2023-03-04T13:17:02.336Z,10.87
2023-03-04T13:19:49.019Z,7.30
2023-03-04T13:22:31.785Z,15.23
2023-03-04T13:25:01.446Z,6.43
2023-03-04T13:28:08.338Z,10.60
2023-03-04T13:31:08.867Z,11.17
2023-03-04T13:34:03.420Z,8.20
2023-03-04T13:36:59.313Z,8.77
2023-03-04T13:39:35.739Z,10.40
2023-03-04T13:42:19.552Z,8.40
2023-03-04T13:45:30.941Z,7.33
2023-03-04T13:47:59.420Z,11.00
2023-03-04T13:50:37.563Z,9.87
2023-03-04T13:53:42.853Z,8.50
2023-03-04T13:56:37.431Z,12.40
2023-03-04T13:59:25.429Z,9.37
2023-03-04T14:02:02.369Z,10.37
2023-03-04T14:04:34.652Z,10.77
2023-03-04T14:07:04.475Z,8.50
2023-03-04T14:09:34.914Z,8.20
2023-03-04T14:12:05.301Z,6.13
2023-03-04T14:14:37.932Z,10.60
2023-03-04T14:17:08.434Z,13.07
2023-03-04T14:19:40.733Z,14.80
2023-03-04T14:22:22.564Z,11.67
2023-03-04T14:25:02.097Z,8.13
2023-03-04T14:27:33.082Z,8.30
2023-03-04T14:30:03.718Z,10.23
2023-03-04T14:32:33.864Z,4.93
2023-03-04T14:35:04.966Z,10.90
2023-03-04T14:37:40.325Z,9.43
2023-03-04T14:40:10.572Z,7.13
2023-03-04T14:42:42.019Z,7.70
2023-03-04T14:45:14.178Z,6.90
2023-03-04T14:47:47.550Z,8.13
2023-03-04T14:50:18.391Z,9.67
2023-03-04T14:52:48.756Z,11.07
2023-03-04T14:55:24.880Z,6.43
2023-03-04T14:57:58.639Z,7.87
2023-03-04T15:00:32.341Z,11.47
2023-03-04T15:03:03.889Z,8.73
2023-03-04T15:05:33.900Z,6.90
2023-03-04T15:08:05.163Z,8.23
2023-03-04T15:10:36.087Z,11.17
2023-03-04T15:13:06.881Z,7.73
2023-03-04T15:15:39.956Z,11.53
2023-03-04T15:18:27.374Z,9.33
2023-03-04T15:20:57.551Z,16.40
2023-03-04T15:23:27.520Z,7.53
2023-03-04T15:25:57.890Z,7.37
2023-03-04T15:28:36.023Z,6.57
2023-03-04T15:31:05.450Z,8.37
2023-03-04T15:33:36.021Z,8.13
2023-03-04T15:36:05.981Z,9.23
2023-03-04T15:38:35.364Z,9.10
2023-03-04T15:41:04.265Z,13.27
2023-03-04T15:43:32.827Z,7.23
2023-03-04T15:46:02.264Z,8.97
2023-03-04T15:48:31.266Z,10.30
2023-03-04T15:51:02.939Z,11.30
2023-03-04T15:53:34.870Z,11.67
2023-03-04T15:56:04.286Z,14.17
2023-03-04T15:58:37.183Z,12.07
2023-03-04T16:01:05.900Z,11.30
2023-03-04T16:03:35.235Z,9.03
2023-03-04T16:06:06.063Z,13.83
2023-03-04T16:08:35.850Z,8.80
2023-03-04T16:11:04.443Z,6.60
2023-03-04T16:13:33.325Z,7.17
2023-03-04T16:16:03.006Z,10.07
2023-03-04T16:18:32.347Z,10.00
2023-03-04T16:21:02.093Z,6.70
2023-03-04T16:23:34.771Z,12.07
2023-03-04T16:26:03.619Z,12.40
2023-03-04T16:28:32.176Z,7.90
2023-03-04T16:31:00.659Z,5.40
2023-03-04T16:33:29.774Z,5.03
2023-03-04T16:35:59.799Z,7.40
2023-03-04T16:38:34.141Z,6.07
2023-03-04T16:41:04.737Z,12.50
2023-03-04T16:43:34.131Z,5.00
2023-03-04T16:46:03.055Z,6.93
2023-03-04T16:48:32.249Z,4.37
2023-03-04T16:51:00.931Z,8.30
2023-03-04T16:53:35.383Z,5.50
2023-03-04T16:56:07.567Z,6.90
2023-03-04T16:58:37.165Z,8.70
2023-03-04T17:01:06.684Z,7.47
2023-03-04T17:03:35.044Z,5.33
2023-03-04T17:06:03.831Z,9.27
2023-03-04T17:08:37.166Z,9.90
2023-03-04T17:11:06.438Z,9.20
2023-03-04T17:13:35.455Z,12.33
2023-03-04T17:16:05.957Z,7.63
2023-03-04T17:18:34.855Z,7.37
2023-03-04T17:21:05.640Z,9.27
2023-03-04T17:23:36.285Z,10.67
2023-03-04T17:26:06.252Z,8.53
2023-03-04T17:28:36.527Z,9.00
2023-03-04T17:31:11.188Z,10.87
2023-03-04T17:33:40.983Z,15.20
2023-03-04T17:36:12.007Z,17.00
2023-03-04T17:38:43.406Z,15.30
2023-03-04T17:41:16.451Z,6.87
2023-03-04T17:43:46.613Z,12.50
2023-03-04T17:46:19.147Z,10.70
2023-03-04T17:48:48.487Z,10.47
2023-03-04T17:51:19.895Z,13.23
2023-03-04T17:53:52.506Z,9.77
2023-03-04T17:56:22.478Z,8.97
2023-03-04T17:58:52.131Z,12.13
2023-03-04T18:01:22.658Z,7.77
2023-03-04T18:03:54.242Z,12.97
2023-03-04T18:06:25.409Z,8.13
2023-03-04T18:08:56.692Z,15.70
2023-03-04T18:11:27.876Z,9.73
2023-03-04T18:13:59.384Z,11.33
2023-03-04T18:16:29.979Z,8.70
2023-03-04T18:19:02.860Z,14.63
2023-03-04T18:21:32.913Z,8.33
2023-03-04T18:24:05.814Z,7.90
2023-03-04T18:26:35.718Z,9.40
2023-03-04T18:29:10.840Z,8.90
2023-03-04T18:31:40.811Z,7.90
2023-03-04T18:34:11.048Z,15.30
2023-03-04T18:36:40.986Z,18.47
2023-03-04T18:39:13.871Z,15.53
2023-03-04T18:41:44.580Z,15.10
2023-03-04T18:44:19.112Z,17.23
2023-03-04T18:46:52.437Z,8.80
2023-03-04T18:49:24.702Z,11.97
2023-03-04T18:51:55.218Z,10.00
2023-03-04T18:54:26.838Z,12.73
2023-03-04T18:56:59.084Z,12.90
2023-03-04T18:59:32.748Z,10.73
2023-03-04T19:02:06.094Z,12.47
2023-03-04T19:04:37.311Z,10.93
2023-03-04T19:07:06.887Z,10.50
2023-03-04T19:09:39.694Z,11.37
2023-03-04T19:12:10.477Z,12.33
2023-03-04T19:14:41.174Z,10.57
2023-03-04T19:17:13.071Z,9.40
2023-03-04T19:19:42.983Z,8.70
2023-03-04T19:22:14.455Z,10.20
2023-03-04T19:24:47.868Z,9.07
2023-03-04T19:27:18.709Z,8.10
2023-03-04T19:29:49.688Z,6.67
2023-03-04T19:32:19.953Z,7.37
2023-03-04T19:34:50.092Z,4.53
2023-03-04T19:37:20.315Z,5.10
2023-03-04T19:39:53.129Z,12.43
2023-03-04T19:42:28.578Z,9.63
2023-03-04T19:45:03.576Z,11.10
2023-03-04T19:47:33.831Z,7.53
2023-03-04T19:50:04.702Z,5.97
2023-03-04T19:52:34.903Z,4.23
2023-03-04T19:55:06.664Z,7.80
2023-03-04T19:57:36.543Z,6.20
2023-03-04T20:00:06.491Z,5.63
2023-03-04T20:02:36.270Z,7.00
2023-03-04T20:05:06.356Z,9.57
2023-03-04T20:07:36.902Z,5.87
2023-03-04T20:10:09.364Z,8.53
2023-03-04T20:12:39.104Z,10.20
2023-03-04T20:15:10.824Z,8.13
2023-03-04T20:17:40.918Z,9.23
2023-03-04T20:20:14.399Z,5.00
2023-03-04T20:22:44.002Z,7.87
2023-03-04T20:25:15.301Z,7.30
2023-03-04T20:27:44.389Z,7.83
2023-03-04T20:30:15.564Z,10.77
2023-03-04T20:32:45.433Z,5.73
2023-03-04T20:35:17.095Z,7.20
2023-03-04T20:37:47.823Z,5.80
2023-03-04T20:40:19.532Z,7.37
2023-03-04T20:42:49.682Z,6.10
2023-03-04T20:45:20.900Z,13.10
2023-03-04T20:47:50.901Z,10.20
2023-03-04T20:50:20.759Z,9.20
2023-03-04T20:52:50.485Z,10.80
2023-03-04T20:55:22.074Z,6.57
2023-03-04T20:57:51.492Z,7.87
2023-03-04T21:00:21.684Z,7.43
2023-03-04T21:02:51.269Z,7.77
2023-03-04T21:05:20.778Z,6.47
2023-03-04T21:07:50.309Z,10.53
2023-03-04T21:10:28.112Z,8.47
2023-03-04T21:12:57.016Z,9.93
2023-03-04T21:15:25.712Z,12.73
2023-03-04T21:17:54.475Z,20.10
2023-03-04T21:20:23.900Z,19.93
2023-03-04T21:22:53.294Z,11.50
2023-03-04T21:25:25.768Z,14.40
2023-03-04T21:27:54.581Z,15.33
2023-03-04T21:30:23.697Z,12.63
2023-03-04T21:32:54.289Z,9.77
2023-03-04T21:35:23.191Z,8.43
2023-03-04T21:37:54.457Z,14.37
2023-03-04T21:40:26.074Z,11.07
2023-03-04T21:42:55.184Z,7.77
2023-03-04T21:45:23.875Z,8.83
2023-03-04T21:47:52.640Z,14.10
2023-03-04T21:50:21.538Z,8.50
2023-03-04T21:52:50.415Z,12.13
2023-03-04T21:55:18.949Z,8.50
2023-03-04T21:57:49.465Z,8.53
2023-03-04T22:00:19.249Z,12.70
2023-03-04T22:02:47.976Z,12.47
2023-03-04T22:05:17.934Z,12.77
2023-03-04T22:07:47.599Z,8.73
2023-03-04T22:10:16.407Z,15.93
2023-03-04T22:12:45.370Z,14.83
2023-03-04T22:15:15.088Z,13.10
2023-03-04T22:17:45.881Z,9.60
2023-03-04T22:20:15.648Z,15.33
2023-03-04T22:22:43.998Z,20.03
2023-03-04T22:25:12.460Z,17.27
2023-03-04T22:27:40.744Z,16.27
2023-03-04T22:30:10.545Z,19.27
2023-03-04T22:32:40.296Z,19.17
2023-03-04T22:35:09.160Z,19.67
2023-03-04T22:37:37.452Z,20.00
2023-03-04T22:40:06.773Z,19.50
2023-03-04T22:42:35.362Z,18.33
2023-03-04T22:45:03.608Z,29.97
2023-03-04T22:47:31.913Z,28.27
2023-03-04T22:50:01.572Z,26.00
2023-03-04T22:52:29.935Z,25.43
2023-03-04T22:54:58.242Z,29.60
2023-03-04T22:57:26.574Z,30.93
2023-03-04T22:59:54.875Z,22.97
2023-03-04T23:02:23.344Z,27.50
2023-03-04T23:04:51.569Z,25.00
2023-03-04T23:07:21.241Z,27.03
2023-03-04T23:09:49.618Z,24.33
2023-03-04T23:12:17.869Z,28.83
2023-03-04T23:14:46.158Z,27.87
2023-03-04T23:17:14.561Z,29.00
2023-03-04T23:19:43.001Z,28.10
2023-03-04T23:22:11.229Z,29.67
2023-03-04T23:24:40.874Z,28.97
2023-03-04T23:27:09.133Z,27.77
2023-03-04T23:29:37.412Z,25.80
2023-03-04T23:32:06.131Z,32.47
2023-03-04T23:34:34.394Z,30.90
2023-03-04T23:37:02.620Z,27.97
2023-03-04T23:39:30.908Z,30.17
2023-03-04T23:42:00.599Z,27.80
2023-03-04T23:44:28.809Z,27.57
2023-03-04T23:46:57.047Z,31.30
2023-03-04T23:49:25.451Z,27.20
2023-03-04T23:51:53.733Z,34.93
2023-03-04T23:54:22.079Z,32.00
2023-03-04T23:56:50.340Z,28.00
2023-03-04T23:59:20.101Z,32.63
